Jamestown Regional Airport
KJMS : now visible

Airfield :











YOU CAN JOIN US ON...

 
LOGIN :

Register | Disclaimer

   EN    FR    IT 

 









Legend :    VFR   Marginal VFR   IFR   Intensive IFR   Very Intensive IFR
Visi :
Ceiling :
>= 8 km
>= 3000ft
5 to 8 km
1000 to 3000 ft
1500m to 5 km
500 to 1000 ft
800 to 1500m
200 to 500 ft
< 800m
< 200 ft
Symbols :   Thunderstorms  Fog  Heavy snow  Heavy precipitations  Wind > 20 kt






- Airport Elevation : 1500 ft
- IATA code : JMS


KJMS - Jamestown Regional

CURRENT METAR :
  • 202004Z AUTO 15009KT 1 1/2SM -SN BR OVC005 01/M01 A2988 RMK AO2 P0000 T00061006

EXPIRED METARs :
  • 201956Z AUTO 15009KT 2SM -SN BR OVC005 01/M01 A2988 RMK AO2 SLP136 P0001 T00061006
  • 201938Z AUTO 15010KT 4SM -SN BR OVC007 01/M01 A2989 RMK AO2 P0001 T00061006
  • 201909Z AUTO 14011KT 2 1/2SM -SN BR OVC007 01/M01 A2989 RMK AO2 P0000 T00061006
  • 201856Z AUTO 14011KT 1 1/2SM -SN BR BKN007 OVC013 01/M01 A2989 RMK AO2 SLP140 P0001 T00061011
  • 201828Z AUTO 14013KT 1 1/4SM -SN BR BKN006 OVC014 01/M01 A2990 RMK AO2 P0001 T00061011
  • 201817Z AUTO 13012KT 3/4SM -SN BR BKN006 OVC016 01/M01 A2991 RMK AO2 P0000 T00061006
  • 201808Z AUTO 13014KT 3/4SM -SN BR SCT008 BKN013 OVC018 01/M01 A2992 RMK AO2 P0000 T00061011
  • 201756Z AUTO 12013KT 1 1/4SM -SN BR SCT006 BKN012 OVC018 01/M01 A2992 RMK AO2 SLP151 P0000 60007 T00061011 10006 21006 56010
  • 201735Z AUTO 13012KT 2 1/2SM -SN BR BKN007 OVC010 01/M01 A2993 RMK AO2 P0000 T00061011

TAF KJMS
Valid from the 20 at 18:00 until the 21 at 18:00 UTC


201723Z 2018/2118 14013G24KT 1SM -SN BR BKN006 OVC015
FM202000 16011G20KT P6SM VCSH SCT005 OVC011
FM202300 27008KT P6SM SCT005 BKN012
FM210000 29012KT P6SM SCT014 BKN016
FM210300 29011KT P6SM BKN060
FM210700 28011G19KT P6SM FEW080
KZMP FIR / North America



MET'MAP, your aeronautical weather chart ! - Copyright ORBIFLY December 2007 - Disclaimer

ORBIFLY MET'MAP TEAM :

Programming & Development : Alexandra Zaïnal
Concept & original design : Baudouin d'Aumeries
Assistance for programming : Marc-Olivier Méhu
Technical & hardware support : Manuel Goepfert

Contact : metmap@orbifly.com




SOURCES & CREDITS :

   NOAA       Earth
Advisory